Time;durP1;ratioP1;P1;durP2;ratioP2;P2;SDS_P1;SDS_P2;PMS_P1;PMS_P2;Temp;Humidity;BMP_temperature;BMP_pressure;BME280_temperature;BME280_humidity;BME280_pressure;Samples;Min_cycle;Max_cycle;Signal;HPM_P1;HPM_P2
2022/11/16 00:01:31;;;;;;;70.60;66.47;;;10.90;99.90;;;;;;5089141;28;20801;-56
2022/11/16 00:03:59;;;;;;;75.75;71.32;;;10.80;99.90;;;;;;5088221;28;20463;-56
2022/11/16 00:06:26;;;;;;;78.63;74.00;;;10.80;99.90;;;;;;5087289;28;20612;-54
2022/11/16 00:11:40;;;;;;;75.10;70.63;;;10.80;99.90;;;;;;5086520;28;20431;-55
2022/11/16 00:14:06;;;;;;;76.55;71.80;;;10.80;99.90;;;;;;5087708;28;20386;-56
2022/11/16 00:16:32;;;;;;;68.85;64.65;;;10.70;99.90;;;;;;5088137;28;20793;-51
2022/11/16 00:19:04;;;;;;;76.60;71.78;;;10.70;99.90;;;;;;5087844;28;20538;-51
2022/11/16 00:21:30;;;;;;;77.68;73.00;;;10.70;99.90;;;;;;5090393;28;20390;-56
2022/11/16 00:23:56;;;;;;;80.65;75.72;;;10.70;99.90;;;;;;5088949;28;20990;-53
2022/11/16 00:26:21;;;;;;;77.03;72.40;;;10.70;99.90;;;;;;5090539;28;20390;-55
2022/11/16 00:28:47;;;;;;;78.28;73.68;;;10.70;99.90;;;;;;5090822;28;20422;-55
2022/11/16 00:31:13;;;;;;;74.05;69.57;;;10.70;99.90;;;;;;5090988;28;20675;-55
2022/11/16 00:33:39;;;;;;;78.70;73.95;;;10.70;99.90;;;;;;5090785;28;20402;-56
2022/11/16 00:36:08;;;;;;;77.60;72.72;;;10.70;99.90;;;;;;5091398;28;20390;-57
2022/11/16 00:38:34;;;;;;;79.30;74.43;;;10.60;99.90;;;;;;5090857;28;20494;-54
2022/11/16 00:40:59;;;;;;;77.57;72.97;;;10.60;99.90;;;;;;5090534;28;20703;-56
2022/11/16 00:43:26;;;;;;;76.45;71.85;;;10.60;99.90;;;;;;5089341;28;20408;-56
2022/11/16 00:45:52;;;;;;;76.50;71.90;;;10.50;99.90;;;;;;5094318;28;20394;-56
2022/11/16 00:48:17;;;;;;;79.70;74.85;;;10.50;99.90;;;;;;5095373;28;20417;-56
2022/11/16 00:50:44;;;;;;;82.07;77.17;;;10.40;99.90;;;;;;5096562;28;20444;-56
2022/11/16 00:53:12;;;;;;;84.00;78.75;;;10.50;99.90;;;;;;5096205;28;20689;-52
2022/11/16 00:55:38;;;;;;;78.50;73.60;;;10.40;99.90;;;;;;5095423;28;20388;-56
2022/11/16 00:58:03;;;;;;;80.00;75.10;;;10.40;99.90;;;;;;5097545;28;20695;-54
2022/11/16 01:00:30;;;;;;;81.72;76.70;;;10.50;99.90;;;;;;5096597;28;20827;-54
2022/11/16 01:02:55;;;;;;;81.72;76.63;;;10.50;99.90;;;;;;5098968;28;20456;-54
2022/11/16 01:05:22;;;;;;;83.30;78.20;;;10.50;99.90;;;;;;5098952;28;20444;-54
2022/11/16 01:07:48;;;;;;;80.70;75.70;;;10.50;99.90;;;;;;5098754;28;20378;-55
2022/11/16 01:10:16;;;;;;;72.82;68.15;;;10.50;99.90;;;;;;5099629;28;20473;-56
2022/11/16 01:12:43;;;;;;;74.00;69.20;;;10.50;99.90;;;;;;5100720;28;20926;-56
2022/11/16 01:15:09;;;;;;;74.55;69.82;;;10.40;99.90;;;;;;5099824;28;20480;-56
2022/11/16 01:17:38;;;;;;;78.10;73.25;;;10.40;99.90;;;;;;5099607;28;20554;-50
2022/11/16 01:20:07;;;;;;;82.70;77.43;;;10.40;99.90;;;;;;5097922;28;20661;-51
2022/11/16 01:22:36;;;;;;;83.70;78.40;;;10.30;99.90;;;;;;5096736;28;20555;-56
2022/11/16 01:25:03;;;;;;;79.78;74.80;;;10.30;99.90;;;;;;5096669;28;20728;-53
2022/11/16 01:27:28;;;;;;;78.43;73.47;;;10.30;99.90;;;;;;5096761;28;20571;-52
2022/11/16 01:29:54;;;;;;;70.77;66.20;;;10.30;99.90;;;;;;5096597;28;20519;-56
2022/11/16 01:32:20;;;;;;;70.35;65.80;;;10.30;99.90;;;;;;5096992;28;20402;-56
2022/11/16 01:34:45;;;;;;;76.72;71.82;;;10.30;99.90;;;;;;5096147;28;20474;-52
2022/11/16 01:37:11;;;;;;;75.73;70.77;;;10.30;99.90;;;;;;5097376;28;20582;-51
2022/11/16 01:39:36;;;;;;;75.40;70.53;;;10.20;99.90;;;;;;5098791;28;20389;-51
2022/11/16 01:42:03;;;;;;;79.18;74.18;;;10.20;99.90;;;;;;5099995;28;20410;-56
2022/11/16 01:44:32;;;;;;;73.20;68.50;;;10.20;99.90;;;;;;5097513;28;20511;-55
2022/11/16 01:46:58;;;;;;;78.27;73.23;;;10.20;99.90;;;;;;5097370;28;20389;-56
2022/11/16 01:49:27;;;;;;;75.18;70.38;;;10.10;99.90;;;;;;5096328;28;20386;-56
2022/11/16 01:51:56;;;;;;;74.43;69.63;;;10.10;99.90;;;;;;5095998;28;20638;-55
2022/11/16 01:54:22;;;;;;;73.13;68.47;;;10.10;99.90;;;;;;5094566;28;20382;-55
2022/11/16 01:56:50;;;;;;;71.33;66.73;;;10.10;99.90;;;;;;5092362;28;20470;-56
2022/11/16 01:59:16;;;;;;;72.75;68.00;;;10.10;99.90;;;;;;5095269;28;20794;-54
2022/11/16 02:01:42;;;;;;;78.65;73.65;;;10.10;99.90;;;;;;5094243;28;20466;-54
2022/11/16 02:04:12;;;;;;;78.73;73.70;;;10.00;99.90;;;;;;5094080;28;20723;-57
2022/11/16 02:06:58;;;;;;;82.75;77.43;;;10.10;99.90;;;;;;5095553;28;20382;-55
2022/11/16 02:09:53;;;;;;;74.28;69.47;;;10.00;99.90;;;;;;5095604;28;20770;-52
2022/11/16 02:12:44;;;;;;;82.70;77.40;;;10.00;99.90;;;;;;5093440;28;20381;-51
2022/11/16 02:15:42;;;;;;;73.17;68.47;;;10.00;99.90;;;;;;5092282;28;20770;-58
2022/11/16 02:18:26;;;;;;;73.80;69.13;;;10.00;99.90;;;;;;5092057;28;20443;-56
2022/11/16 02:21:18;;;;;;;82.60;77.35;;;9.90;99.90;;;;;;5093487;28;20414;-53
2022/11/16 02:24:25;;;;;;;83.63;78.43;;;9.90;99.90;;;;;;5092758;28;20441;-51
2022/11/16 02:27:18;;;;;;;73.90;68.88;;;9.90;99.90;;;;;;5094677;28;20382;-54
2022/11/16 02:29:50;;;;;;;74.20;69.15;;;9.90;99.90;;;;;;5093791;28;20385;-56
2022/11/16 02:32:33;;;;;;;72.83;68.03;;;9.90;99.90;;;;;;5093710;28;20397;-53
2022/11/16 02:35:08;;;;;;;71.78;67.10;;;9.90;99.90;;;;;;5093118;28;20418;-56
2022/11/16 02:37:37;;;;;;;76.95;72.00;;;9.90;99.90;;;;;;5094794;28;20827;-56
2022/11/16 02:40:06;;;;;;;84.63;79.10;;;9.90;99.90;;;;;;5094957;28;20843;-56
2022/11/16 02:42:37;;;;;;;76.78;71.57;;;9.90;99.90;;;;;;5093123;28;20813;-55
2022/11/16 02:45:06;;;;;;;71.15;66.25;;;9.80;99.90;;;;;;5094203;28;20381;-56
2022/11/16 02:47:34;;;;;;;71.60;66.75;;;9.80;99.90;;;;;;5093677;28;20409;-54
2022/11/16 02:50:08;;;;;;;76.15;71.00;;;9.80;99.90;;;;;;5093205;28;20481;-56
2022/11/16 02:52:35;;;;;;;85.10;79.47;;;9.90;99.90;;;;;;5092172;28;20378;-52
2022/11/16 02:55:01;;;;;;;72.50;67.68;;;9.90;99.90;;;;;;5092140;28;20385;-56
2022/11/16 02:57:41;;;;;;;74.63;69.57;;;9.90;99.90;;;;;;5092143;28;20378;-55
2022/11/16 03:00:09;;;;;;;81.47;75.77;;;9.90;99.90;;;;;;5093617;28;20816;-55
2022/11/16 03:02:58;;;;;;;75.73;70.47;;;9.80;99.90;;;;;;5092769;28;20424;-57
2022/11/16 03:05:43;;;;;;;76.80;71.50;;;9.80;99.90;;;;;;5092776;28;20409;-56
2022/11/16 03:08:22;;;;;;;70.93;66.03;;;9.80;99.90;;;;;;5091716;28;20382;-54
2022/11/16 03:13:39;;;;;;;73.95;68.80;;;9.80;99.90;;;;;;5092969;28;20376;-56
2022/11/16 03:16:17;;;;;;;68.18;63.38;;;9.80;99.90;;;;;;5093593;28;20402;-57
2022/11/16 03:18:44;;;;;;;80.73;75.13;;;9.80;99.90;;;;;;5094976;28;20443;-56
2022/11/16 03:21:21;;;;;;;80.90;75.18;;;9.80;99.90;;;;;;5095367;28;20689;-56
2022/11/16 03:23:47;;;;;;;83.63;77.78;;;9.80;99.90;;;;;;5093726;28;20412;-57
2022/11/16 03:26:17;;;;;;;76.90;71.50;;;9.70;99.90;;;;;;5093063;28;20382;-54
2022/11/16 03:29:09;;;;;;;73.10;67.95;;;9.70;99.90;;;;;;5092431;28;20407;-54
2022/11/16 03:31:45;;;;;;;73.30;68.07;;;9.80;99.90;;;;;;5089586;28;20394;-54
2022/11/16 03:34:15;;;;;;;72.53;67.33;;;9.70;99.90;;;;;;5089157;28;20389;-54
2022/11/16 03:36:43;;;;;;;70.15;64.90;;;9.70;99.90;;;;;;5088584;28;20451;-53
2022/11/16 03:39:23;;;;;;;73.53;68.57;;;9.70;99.90;;;;;;5089668;28;20380;-56
2022/11/16 03:41:49;;;;;;;79.13;73.57;;;9.70;99.90;;;;;;5090008;28;20378;-55
2022/11/16 03:44:17;;;;;;;75.63;70.32;;;9.70;99.90;;;;;;5089676;28;20374;-56
2022/11/16 03:46:44;;;;;;;78.03;72.47;;;9.70;99.90;;;;;;5090136;28;20402;-54
2022/11/16 03:49:10;;;;;;;75.32;69.90;;;9.60;99.90;;;;;;5090642;28;20382;-54
2022/11/16 03:51:36;;;;;;;69.57;64.60;;;9.60;99.90;;;;;;5091768;28;20382;-53
2022/11/16 03:54:02;;;;;;;75.88;70.75;;;9.60;99.90;;;;;;5091856;28;20694;-52
2022/11/16 03:56:28;;;;;;;71.65;66.72;;;9.60;99.90;;;;;;5092704;28;20446;-53
2022/11/16 03:58:53;;;;;;;75.28;70.13;;;9.60;99.90;;;;;;5093150;28;20378;-53
2022/11/16 04:01:19;;;;;;;78.97;73.57;;;9.60;99.90;;;;;;5092785;28;20786;-55
2022/11/16 04:03:44;;;;;;;73.80;68.67;;;9.60;99.90;;;;;;5090879;28;20439;-54
2022/11/16 04:25:53;;;;;;;72.28;67.28;;;9.60;99.90;;;;;;5093120;28;20377;-53
2022/11/16 04:28:24;;;;;;;76.50;71.20;;;9.60;99.90;;;;;;5091334;28;20677;-54
2022/11/16 04:39:05;;;;;;;76.85;71.35;;;9.60;99.90;;;;;;5092043;28;20384;-54
2022/11/16 04:42:14;;;;;;;83.15;77.50;;;9.60;99.90;;;;;;5093144;28;20398;-54
2022/11/16 04:44:20;;;;;;;76.93;71.73;;;9.50;99.90;;;;;;5086956;28;20390;-55
2022/11/16 04:49:31;;;;;;;78.77;73.37;;;9.50;99.90;;;;;;5091731;28;20804;-56
2022/11/16 04:51:56;;;;;;;79.20;73.57;;;9.50;99.90;;;;;;5091124;28;20913;-56
2022/11/16 04:54:22;;;;;;;77.23;71.77;;;9.50;99.90;;;;;;5087885;28;20545;-54
2022/11/16 04:56:47;;;;;;;74.40;69.23;;;9.40;99.90;;;;;;5088484;28;20577;-56
2022/11/16 04:59:14;;;;;;;77.28;71.97;;;9.40;99.90;;;;;;5088539;28;20415;-56
2022/11/16 05:04:23;;;;;;;75.97;70.78;;;9.40;99.90;;;;;;5088498;28;20958;-55
2022/11/16 05:06:49;;;;;;;73.00;67.80;;;9.40;99.90;;;;;;5088146;28;20781;-56
2022/11/16 05:09:14;;;;;;;74.32;68.95;;;9.40;99.90;;;;;;5089466;28;20374;-56
2022/11/16 05:11:40;;;;;;;81.87;76.17;;;9.40;99.90;;;;;;5087745;28;20397;-51
2022/11/16 05:14:05;;;;;;;75.10;70.03;;;9.40;99.90;;;;;;5087192;28;20706;-57
2022/11/16 05:16:32;;;;;;;73.38;68.25;;;9.40;99.90;;;;;;5087378;28;20441;-56
2022/11/16 05:21:42;;;;;;;76.85;71.82;;;9.40;99.90;;;;;;5083653;28;20377;-52
2022/11/16 05:26:52;;;;;;;73.00;67.80;;;9.40;99.90;;;;;;5086040;28;20789;-57
2022/11/16 05:29:18;;;;;;;71.43;66.53;;;9.40;99.90;;;;;;5088217;28;20374;-54
2022/11/16 05:31:43;;;;;;;74.50;69.18;;;9.40;99.90;;;;;;5089971;28;20390;-55
2022/11/16 05:34:09;;;;;;;73.93;68.67;;;9.40;99.90;;;;;;5090521;28;20438;-54
2022/11/16 05:36:34;;;;;;;78.27;72.90;;;9.30;99.90;;;;;;5089500;28;20410;-57
2022/11/16 05:39:00;;;;;;;71.50;66.43;;;9.30;99.90;;;;;;5091318;28;20578;-54
2022/11/16 05:41:25;;;;;;;76.47;71.40;;;9.30;99.90;;;;;;5091652;28;20385;-56
2022/11/16 05:43:51;;;;;;;74.50;69.50;;;9.20;99.90;;;;;;5092809;28;20763;-55
2022/11/16 05:46:16;;;;;;;70.90;66.00;;;9.30;99.90;;;;;;5092635;28;20390;-56
2022/11/16 05:48:42;;;;;;;75.23;70.00;;;9.30;99.90;;;;;;5092594;28;20463;-56
2022/11/16 05:51:07;;;;;;;76.47;71.23;;;9.30;99.90;;;;;;5092765;28;20469;-56
2022/11/16 05:53:33;;;;;;;65.45;60.75;;;9.20;99.90;;;;;;5090521;28;20390;-54
2022/11/16 05:55:59;;;;;;;72.65;67.63;;;9.30;99.90;;;;;;5090895;28;20494;-55
2022/11/16 05:58:24;;;;;;;75.57;70.27;;;9.20;99.90;;;;;;5090064;28;20477;-54
2022/11/16 06:00:53;;;;;;;71.93;67.13;;;9.20;99.90;;;;;;5088576;28;20412;-55
2022/11/16 06:03:18;;;;;;;68.82;64.07;;;9.20;99.90;;;;;;5087066;28;20393;-55
2022/11/16 06:05:44;;;;;;;70.10;65.20;;;9.30;99.90;;;;;;5088979;28;20378;-56
2022/11/16 06:08:09;;;;;;;71.57;66.67;;;9.20;99.90;;;;;;5086962;28;20388;-55
2022/11/16 06:10:35;;;;;;;66.35;61.75;;;9.20;99.90;;;;;;5087810;28;20639;-52
2022/11/16 06:13:01;;;;;;;69.53;64.63;;;9.20;99.90;;;;;;5089056;28;20688;-55
2022/11/16 06:15:27;;;;;;;66.38;61.75;;;9.20;99.90;;;;;;5088272;28;20386;-53
2022/11/16 06:17:52;;;;;;;68.17;63.57;;;9.20;99.90;;;;;;5090942;28;20816;-52
2022/11/16 06:20:18;;;;;;;66.87;62.17;;;9.10;99.90;;;;;;5089034;28;20518;-57
2022/11/16 06:22:43;;;;;;;68.70;63.80;;;9.10;99.90;;;;;;5090858;28;20673;-55
2022/11/16 06:25:09;;;;;;;71.47;66.57;;;9.10;99.90;;;;;;5091432;28;20454;-56
2022/11/16 06:27:38;;;;;;;73.22;68.00;;;9.10;99.90;;;;;;5089003;28;20386;-56
2022/11/16 06:30:05;;;;;;;69.72;64.80;;;9.10;99.90;;;;;;5088909;28;20434;-52
2022/11/16 06:32:30;;;;;;;67.00;62.22;;;9.10;99.90;;;;;;5089425;28;20682;-52
2022/11/16 06:34:56;;;;;;;68.33;63.53;;;9.00;99.90;;;;;;5088116;28;20390;-52
2022/11/16 06:37:21;;;;;;;67.07;62.27;;;9.00;99.90;;;;;;5086120;28;20883;-54
2022/11/16 06:39:46;;;;;;;70.20;65.40;;;9.00;99.90;;;;;;5088273;28;20401;-56
2022/11/16 06:42:12;;;;;;;67.15;62.60;;;9.00;99.90;;;;;;5087831;28;20497;-53
2022/11/16 06:44:37;;;;;;;71.73;66.63;;;9.00;99.90;;;;;;5086986;28;20559;-56
2022/11/16 06:47:03;;;;;;;66.53;61.83;;;9.00;99.90;;;;;;5087669;28;20497;-55
2022/11/16 06:49:29;;;;;;;68.43;63.60;;;9.00;99.90;;;;;;5086030;28;20386;-55
2022/11/16 06:51:54;;;;;;;68.43;63.72;;;8.90;99.90;;;;;;5085109;28;20631;-54
2022/11/16 06:54:20;;;;;;;68.40;63.63;;;8.90;99.90;;;;;;5084747;28;20469;-53
2022/11/16 06:56:45;;;;;;;71.07;66.17;;;8.90;99.90;;;;;;5086245;28;20394;-54
2022/11/16 06:59:11;;;;;;;66.13;61.58;;;9.00;99.90;;;;;;5082445;28;20690;-56
2022/11/16 07:01:36;;;;;;;66.40;61.83;;;9.00;99.90;;;;;;5081851;28;20508;-55
2022/11/16 07:04:02;;;;;;;69.93;65.10;;;9.00;99.90;;;;;;5079978;28;20486;-56
2022/11/16 07:06:28;;;;;;;63.88;59.40;;;9.00;99.90;;;;;;5082085;28;20378;-52
2022/11/16 07:08:54;;;;;;;63.17;58.67;;;9.00;99.90;;;;;;5081443;28;20435;-53
2022/11/16 07:11:19;;;;;;;65.67;61.03;;;9.00;99.90;;;;;;5083001;28;20657;-56
2022/11/16 07:13:45;;;;;;;68.53;63.70;;;9.00;99.90;;;;;;5082141;28;20491;-56
2022/11/16 07:16:11;;;;;;;68.80;64.17;;;9.00;99.90;;;;;;5081641;28;20757;-52
2022/11/16 07:18:38;;;;;;;64.83;60.43;;;9.00;99.90;;;;;;5081497;28;20781;-56
2022/11/16 07:21:15;;;;;;;75.95;70.90;;;9.00;99.90;;;;;;5080211;28;20403;-53
2022/11/16 07:23:41;;;;;;;66.68;62.17;;;9.00;99.90;;;;;;5081202;28;20430;-56
2022/11/16 07:26:08;;;;;;;68.90;64.38;;;9.00;99.90;;;;;;5078895;28;20712;-56
2022/11/16 07:28:34;;;;;;;71.53;66.73;;;9.00;99.90;;;;;;5080788;28;20669;-54
2022/11/16 07:31:07;;;;;;;70.57;65.73;;;8.90;99.90;;;;;;5082978;28;20642;-55
2022/11/16 07:33:33;;;;;;;69.28;64.38;;;9.00;99.90;;;;;;5082365;28;20401;-53
2022/11/16 07:36:04;;;;;;;72.00;67.20;;;9.00;99.90;;;;;;5080917;28;20404;-51
2022/11/16 07:38:32;;;;;;;71.07;66.07;;;9.00;99.90;;;;;;5078522;28;20686;-57
2022/11/16 07:41:05;;;;;;;72.75;67.88;;;9.00;99.90;;;;;;5078320;28;20796;-57
2022/11/16 07:43:34;;;;;;;68.90;64.28;;;9.00;99.90;;;;;;5071922;28;20729;-56
2022/11/16 07:46:09;;;;;;;67.90;63.25;;;9.00;99.90;;;;;;5074493;28;20705;-56
2022/11/16 07:48:34;;;;;;;72.20;67.30;;;9.00;99.90;;;;;;5075700;28;20834;-56
2022/11/16 07:51:08;;;;;;;69.40;64.70;;;9.00;99.90;;;;;;5076948;28;20854;-54
2022/11/16 07:53:35;;;;;;;69.50;64.30;;;8.90;99.90;;;;;;5078952;28;20461;-56
2022/11/16 07:56:01;;;;;;;68.93;63.93;;;8.90;99.90;;;;;;5078693;28;20425;-54
2022/11/16 07:58:28;;;;;;;68.07;63.33;;;8.90;99.90;;;;;;5080649;28;20473;-52
2022/11/16 08:01:03;;;;;;;69.80;65.00;;;8.90;99.90;;;;;;5077450;28;20413;-55
2022/11/16 08:03:35;;;;;;;67.80;63.13;;;8.90;99.90;;;;;;5077922;28;20584;-55
2022/11/16 08:06:03;;;;;;;68.43;63.38;;;9.00;99.90;;;;;;5079789;28;20385;-55
2022/11/16 08:08:29;;;;;;;71.03;65.72;;;9.00;99.90;;;;;;5077146;28;20378;-56
2022/11/16 08:11:06;;;;;;;70.82;66.03;;;9.00;99.90;;;;;;5077253;28;20388;-57
2022/11/16 08:13:33;;;;;;;69.72;64.72;;;9.00;99.90;;;;;;5076834;28;20945;-54
2022/11/16 08:16:09;;;;;;;73.75;68.55;;;9.00;99.90;;;;;;5078842;28;20459;-53
2022/11/16 08:18:35;;;;;;;74.50;69.28;;;9.00;99.90;;;;;;5078570;28;20639;-53
2022/11/16 08:21:02;;;;;;;68.35;63.60;;;9.00;99.90;;;;;;5078355;28;20754;-54
2022/11/16 08:23:28;;;;;;;68.67;63.77;;;9.00;99.90;;;;;;5080315;28;20398;-53
2022/11/16 08:26:03;;;;;;;71.10;66.15;;;9.00;99.90;;;;;;5076399;28;20439;-56
2022/11/16 08:28:29;;;;;;;73.95;68.55;;;9.00;99.90;;;;;;5076125;28;20475;-56
2022/11/16 08:30:56;;;;;;;70.80;65.78;;;8.90;99.90;;;;;;5076894;28;20424;-57
2022/11/16 08:33:23;;;;;;;71.68;66.38;;;9.00;99.90;;;;;;5078097;28;20485;-55
2022/11/16 08:35:49;;;;;;;68.72;63.70;;;8.90;99.90;;;;;;5079964;28;20501;-56
2022/11/16 08:38:15;;;;;;;71.13;65.97;;;9.00;99.90;;;;;;5078264;28;20833;-52
2022/11/16 08:40:40;;;;;;;67.83;62.93;;;8.90;99.90;;;;;;5076605;28;20466;-56
2022/11/16 08:43:06;;;;;;;72.40;67.17;;;8.90;99.90;;;;;;5070128;28;20563;-56
2022/11/16 08:45:32;;;;;;;69.10;64.10;;;8.80;99.90;;;;;;5072325;28;20653;-57
2022/11/16 08:47:58;;;;;;;70.32;65.13;;;8.90;99.90;;;;;;5071060;28;20370;-56
2022/11/16 08:50:24;;;;;;;70.65;65.45;;;8.90;99.90;;;;;;5067311;28;20374;-53
2022/11/16 08:52:50;;;;;;;66.85;61.90;;;8.80;99.90;;;;;;5066137;28;20389;-56
2022/11/16 08:55:17;;;;;;;69.85;64.65;;;8.90;99.90;;;;;;5067760;28;20605;-56
2022/11/16 08:57:43;;;;;;;65.18;60.17;;;8.90;99.90;;;;;;5070119;28;20646;-54
2022/11/16 09:00:10;;;;;;;71.15;65.80;;;8.90;99.90;;;;;;5070585;28;20600;-55
2022/11/16 09:02:36;;;;;;;65.40;60.42;;;8.80;99.90;;;;;;5076935;28;20460;-55
2022/11/16 09:05:02;;;;;;;68.32;63.30;;;8.90;99.90;;;;;;5079666;28;20821;-55
2022/11/16 09:07:27;;;;;;;69.57;64.15;;;8.90;99.90;;;;;;5085393;28;20382;-57
2022/11/16 09:09:53;;;;;;;74.97;69.47;;;8.90;99.90;;;;;;5087823;28;20438;-55
2022/11/16 09:12:19;;;;;;;69.23;64.17;;;8.80;99.90;;;;;;5088854;28;20434;-57
2022/11/16 09:14:44;;;;;;;70.32;65.25;;;8.80;99.90;;;;;;5088926;28;20908;-56
2022/11/16 09:17:10;;;;;;;70.30;65.10;;;8.80;99.90;;;;;;5090583;28;20618;-57
2022/11/16 09:19:36;;;;;;;66.90;61.97;;;8.80;99.90;;;;;;5092672;28;20382;-56
2022/11/16 09:22:02;;;;;;;69.68;64.28;;;8.90;99.90;;;;;;5091846;28;20378;-55
2022/11/16 09:24:28;;;;;;;71.28;65.85;;;8.90;99.90;;;;;;5091435;28;20516;-55
2022/11/16 09:26:56;;;;;;;68.30;63.20;;;8.80;99.90;;;;;;5088687;28;20466;-56
2022/11/16 09:29:21;;;;;;;72.40;66.82;;;8.80;99.90;;;;;;5087860;28;20410;-56
2022/11/16 09:31:47;;;;;;;67.57;62.30;;;8.80;99.90;;;;;;5087103;28;21124;-58
2022/11/16 09:34:12;;;;;;;70.53;65.23;;;8.70;99.90;;;;;;5089561;28;20382;-54
2022/11/16 09:36:38;;;;;;;73.90;68.30;;;8.70;99.90;;;;;;5086825;28;20414;-55
2022/11/16 09:39:04;;;;;;;73.20;67.68;;;8.70;99.90;;;;;;5087914;28;20401;-57
2022/11/16 09:41:48;;;;;;;68.70;63.33;;;8.70;99.90;;;;;;5089002;28;20374;-56
2022/11/16 09:44:36;;;;;;;70.43;64.93;;;8.80;99.90;;;;;;5090492;28;20964;-54
2022/11/16 09:47:03;;;;;;;75.83;69.80;;;8.80;99.90;;;;;;5092014;28;20404;-54
2022/11/16 09:49:42;;;;;;;76.30;70.35;;;8.80;99.90;;;;;;5091809;28;20389;-55
2022/11/16 09:52:23;;;;;;;75.18;69.47;;;8.70;99.90;;;;;;5091361;28;20781;-51
2022/11/16 09:54:50;;;;;;;79.93;73.65;;;8.80;99.90;;;;;;5090145;28;20443;-52
2022/11/16 09:57:19;;;;;;;82.75;76.63;;;8.90;99.90;;;;;;5091184;28;20374;-54
2022/11/16 09:59:50;;;;;;;78.32;72.22;;;9.00;99.90;;;;;;5088474;28;20435;-51
2022/11/16 10:02:37;;;;;;;76.55;70.55;;;8.90;99.90;;;;;;5087612;28;20406;-60
2022/11/16 10:05:10;;;;;;;67.47;62.15;;;8.90;99.90;;;;;;5087581;28;20377;-60
2022/11/16 10:07:43;;;;;;;72.20;66.50;;;8.80;99.90;;;;;;5085404;28;20386;-60
2022/11/16 10:10:21;;;;;;;74.78;68.88;;;8.80;99.90;;;;;;5087250;28;20462;-60
2022/11/16 10:13:16;;;;;;;79.07;72.65;;;8.80;99.90;;;;;;5087817;28;20788;-60
2022/11/16 10:15:56;;;;;;;76.03;69.75;;;8.70;99.90;;;;;;5059426;28;20413;-60
2022/11/16 10:18:43;;;;;;;79.87;73.53;;;8.60;99.90;;;;;;5087746;28;20398;-60
2022/11/16 10:21:37;;;;;;;86.25;79.68;;;8.60;99.90;;;;;;5087740;28;20374;-60
2022/11/16 10:24:23;;;;;;;77.22;71.30;;;8.60;99.90;;;;;;5088235;28;20401;-60
2022/11/16 10:27:15;;;;;;;75.15;69.13;;;8.70;99.90;;;;;;5088312;28;20439;-60
2022/11/16 10:30:05;;;;;;;75.50;69.40;;;8.70;99.90;;;;;;5090148;28;20767;-60
2022/11/16 10:32:53;;;;;;;77.13;70.80;;;8.70;99.90;;;;;;5084875;28;20867;-59
2022/11/16 10:35:52;;;;;;;76.07;69.90;;;8.70;99.90;;;;;;5087017;28;20555;-58
2022/11/16 10:38:29;;;;;;;77.35;71.32;;;8.70;99.90;;;;;;5088894;28;20859;-60
2022/11/16 10:41:00;;;;;;;78.50;71.85;;;8.70;99.90;;;;;;5089852;28;20420;-59
2022/11/16 10:43:28;;;;;;;78.90;72.23;;;8.60;99.90;;;;;;5089763;28;20406;-60
2022/11/16 10:46:36;;;;;;;75.97;69.75;;;8.60;99.90;;;;;;5090542;28;20531;-60
2022/11/16 10:49:18;;;;;;;80.20;73.28;;;8.70;99.90;;;;;;5080723;28;20696;-60
2022/11/16 10:51:43;;;;;;;82.97;76.03;;;8.70;99.90;;;;;;5092475;28;20405;-61
2022/11/16 10:54:17;;;;;;;80.78;74.22;;;8.60;99.90;;;;;;5090993;28;20989;-61
2022/11/16 10:56:56;;;;;;;83.25;76.43;;;8.70;99.90;;;;;;5091187;28;20389;-60
2022/11/16 10:59:43;;;;;;;77.18;70.60;;;8.60;99.90;;;;;;5089575;28;20551;-60
2022/11/16 11:02:27;;;;;;;79.97;73.10;;;8.60;99.90;;;;;;5090325;28;20481;-60
2022/11/16 11:05:06;;;;;;;81.82;74.57;;;8.60;99.90;;;;;;5088034;28;20374;-60
2022/11/16 11:07:36;;;;;;;77.97;71.45;;;8.60;99.90;;;;;;5087070;28;20397;-60
2022/11/16 11:10:03;;;;;;;80.78;73.72;;;8.50;99.90;;;;;;5090465;28;20546;-61
2022/11/16 11:12:38;;;;;;;81.10;74.03;;;8.60;99.90;;;;;;5091630;28;20403;-60
2022/11/16 11:15:23;;;;;;;80.75;73.85;;;8.60;99.90;;;;;;5092062;28;20427;-59
2022/11/16 11:18:08;;;;;;;82.07;75.13;;;8.70;99.90;;;;;;5087476;28;20400;-60
2022/11/16 11:20:33;;;;;;;81.18;74.07;;;8.70;99.90;;;;;;5090811;28;20396;-60
2022/11/16 11:23:03;;;;;;;80.97;74.28;;;8.70;99.90;;;;;;5089380;28;20546;-60
2022/11/16 11:25:31;;;;;;;83.75;76.43;;;8.70;99.90;;;;;;5085268;28;20378;-61
2022/11/16 11:28:22;;;;;;;80.85;74.07;;;8.70;99.90;;;;;;5086185;28;20386;-61
2022/11/16 11:30:55;;;;;;;74.60;67.78;;;8.70;99.90;;;;;;5087882;28;20484;-59
2022/11/16 11:33:22;;;;;;;79.77;72.83;;;8.70;99.90;;;;;;5087847;28;20950;-60
2022/11/16 11:36:17;;;;;;;77.35;70.95;;;8.70;99.90;;;;;;5087484;28;20813;-60
2022/11/16 11:38:57;;;;;;;77.10;70.50;;;8.70;99.90;;;;;;5087886;28;20780;-59
2022/11/16 11:41:23;;;;;;;80.93;74.13;;;8.80;99.90;;;;;;5088108;28;20451;-60
2022/11/16 11:44:04;;;;;;;76.22;69.53;;;8.80;99.90;;;;;;5082471;28;20394;-60
2022/11/16 11:46:35;;;;;;;77.43;70.18;;;8.70;99.90;;;;;;5084079;28;20390;-59
2022/11/16 11:49:23;;;;;;;82.25;75.25;;;8.80;99.90;;;;;;5084050;28;20405;-59
2022/11/16 11:51:50;;;;;;;75.97;69.55;;;8.70;99.90;;;;;;5081583;28;20386;-59
2022/11/16 11:54:21;;;;;;;82.30;75.30;;;8.70;99.90;;;;;;5084732;28;20374;-60
2022/11/16 11:56:47;;;;;;;82.13;75.27;;;8.80;99.90;;;;;;5082914;28;20746;-60
2022/11/16 11:59:19;;;;;;;77.30;70.33;;;8.80;99.90;;;;;;5080196;28;20408;-59
2022/11/16 12:02:03;;;;;;;79.60;72.80;;;8.80;99.90;;;;;;5078570;28;20397;-59
2022/11/16 12:05:02;;;;;;;84.72;77.32;;;8.80;99.90;;;;;;5081024;28;20393;-59
2022/11/16 12:07:46;;;;;;;84.75;77.50;;;8.80;99.90;;;;;;5076773;28;20385;-59
2022/11/16 12:10:24;;;;;;;82.03;74.82;;;8.80;99.90;;;;;;5079709;28;20396;-60
2022/11/16 12:13:31;;;;;;;86.60;79.05;;;8.90;99.90;;;;;;5076688;28;20374;-60
2022/11/16 12:16:15;;;;;;;84.30;76.60;;;8.90;99.90;;;;;;5076841;28;20382;-60
2022/11/16 12:19:34;;;;;;;80.17;73.33;;;8.90;99.90;;;;;;5079602;28;20420;-60
2022/11/16 12:22:09;;;;;;;83.32;75.68;;;8.90;99.90;;;;;;5001989;28;20371;-60
2022/11/16 12:25:06;;;;;;;80.33;72.97;;;8.90;99.90;;;;;;5001461;28;21076;-60
2022/11/16 12:27:43;;;;;;;79.68;72.47;;;8.80;99.90;;;;;;5036557;28;20378;-60
2022/11/16 12:30:19;;;;;;;87.93;79.93;;;8.90;99.90;;;;;;5076894;28;20754;-61
2022/11/16 12:33:10;;;;;;;85.85;78.07;;;8.90;99.90;;;;;;5076347;28;20402;-62
2022/11/16 12:36:07;;;;;;;87.07;79.03;;;8.90;99.90;;;;;;5076194;28;20388;-58
2022/11/16 12:38:52;;;;;;;85.93;78.57;;;8.90;99.90;;;;;;5078045;28;20412;-61
2022/11/16 12:41:42;;;;;;;88.93;80.90;;;8.90;99.90;;;;;;5077913;28;20378;-59
2022/11/16 12:44:11;;;;;;;87.97;80.47;;;9.00;99.90;;;;;;5077483;28;20401;-60
2022/11/16 12:46:58;;;;;;;89.88;82.05;;;9.10;99.90;;;;;;5081798;28;20416;-59
2022/11/16 12:49:33;;;;;;;88.23;80.53;;;9.20;99.90;;;;;;5080548;28;20397;-59
2022/11/16 12:52:43;;;;;;;90.13;82.43;;;9.20;99.90;;;;;;5082745;28;20362;-60
2022/11/16 12:55:32;;;;;;;92.03;84.45;;;9.20;99.90;;;;;;5082764;28;20381;-59
2022/11/16 12:58:11;;;;;;;85.97;78.47;;;9.20;99.90;;;;;;5082285;28;20431;-60
2022/11/16 13:01:06;;;;;;;83.13;75.77;;;9.20;99.90;;;;;;5083153;28;20659;-60
2022/11/16 13:03:57;;;;;;;83.57;75.83;;;9.20;99.90;;;;;;5076264;28;20456;-60
2022/11/16 13:06:38;;;;;;;83.53;76.35;;;9.20;99.90;;;;;;5082484;28;20374;-60
2022/11/16 13:09:16;;;;;;;86.07;78.53;;;9.10;99.90;;;;;;5082159;28;20707;-60
2022/11/16 13:11:46;;;;;;;83.40;76.20;;;9.10;99.90;;;;;;5083954;28;20386;-60
2022/11/16 13:14:19;;;;;;;81.63;74.33;;;9.10;99.90;;;;;;5084336;28;20477;-60
2022/11/16 13:16:46;;;;;;;84.00;76.28;;;9.10;99.90;;;;;;5082205;28;20433;-60
2022/11/16 13:19:13;;;;;;;96.30;87.97;;;9.00;99.90;;;;;;5082792;28;20413;-59
2022/11/16 13:21:55;;;;;;;82.85;75.10;;;9.10;99.90;;;;;;5079424;28;20451;-59
2022/11/16 13:24:25;;;;;;;83.93;76.47;;;9.00;99.90;;;;;;5077941;28;20402;-59
2022/11/16 13:27:32;;;;;;;85.20;77.38;;;9.00;99.90;;;;;;5083523;28;21189;-59
2022/11/16 13:30:18;;;;;;;87.70;80.03;;;9.00;99.90;;;;;;5043587;28;20526;-58
2022/11/16 13:33:15;;;;;;;76.82;70.00;;;9.00;99.90;;;;;;5080217;28;20386;-60
2022/11/16 13:35:41;;;;;;;81.55;74.93;;;9.00;99.90;;;;;;5081986;28;20959;-60
2022/11/16 13:38:11;;;;;;;77.28;70.63;;;9.10;99.90;;;;;;5081815;28;20475;-60
2022/11/16 13:40:36;;;;;;;76.25;69.43;;;9.10;99.90;;;;;;5082715;28;20408;-60
2022/11/16 13:43:09;;;;;;;86.47;79.00;;;9.10;99.90;;;;;;5083547;28;20401;-59
2022/11/16 13:45:52;;;;;;;74.82;67.82;;;9.10;99.90;;;;;;5083167;28;20378;-60